sensor_id;sensor_type;location;lat;lon;timestamp;P1;durP1;ratioP1;P2;durP2;ratioP2
74459;SDS011;62902;48.854;9.292;2023-03-31T00:01:49;423.90;;;192.60;;
74459;SDS011;62902;48.854;9.292;2023-03-31T00:04:18;413.90;;;205.40;;
74459;SDS011;62902;48.854;9.292;2023-03-31T00:06:51;413.50;;;201.80;;
74459;SDS011;62902;48.854;9.292;2023-03-31T00:09:20;418.80;;;194.90;;
74459;SDS011;62902;48.854;9.292;2023-03-31T00:11:49;492.70;;;156.40;;
74459;SDS011;62902;48.854;9.292;2023-03-31T00:14:17;472.80;;;166.60;;
74459;SDS011;62902;48.854;9.292;2023-03-31T00:16:45;497.70;;;156.90;;
74459;SDS011;62902;48.854;9.292;2023-03-31T00:19:12;492.05;;;159.50;;
74459;SDS011;62902;48.854;9.292;2023-03-31T00:21:46;462.55;;;173.35;;
74459;SDS011;62902;48.854;9.292;2023-03-31T00:24:14;487.55;;;162.40;;
74459;SDS011;62902;48.854;9.292;2023-03-31T00:26:41;444.30;;;178.33;;
74459;SDS011;62902;48.854;9.292;2023-03-31T00:29:10;494.23;;;157.07;;
74459;SDS011;62902;48.854;9.292;2023-03-31T00:31:38;480.90;;;150.80;;
74459;SDS011;62902;48.854;9.292;2023-03-31T00:34:05;487.55;;;156.75;;
74459;SDS011;62902;48.854;9.292;2023-03-31T00:36:32;488.93;;;162.30;;
74459;SDS011;62902;48.854;9.292;2023-03-31T00:39:04;480.80;;;149.70;;
74459;SDS011;62902;48.854;9.292;2023-03-31T00:41:35;504.48;;;156.45;;
74459;SDS011;62902;48.854;9.292;2023-03-31T00:44:14;495.17;;;158.13;;
74459;SDS011;62902;48.854;9.292;2023-03-31T00:49:26;493.55;;;158.93;;
74459;SDS011;62902;48.854;9.292;2023-03-31T00:52:03;486.50;;;161.00;;
74459;SDS011;62902;48.854;9.292;2023-03-31T00:54:35;511.93;;;152.13;;
74459;SDS011;62902;48.854;9.292;2023-03-31T00:57:03;507.48;;;151.05;;
74459;SDS011;62902;48.854;9.292;2023-03-31T00:59:33;509.20;;;152.10;;
74459;SDS011;62902;48.854;9.292;2023-03-31T01:02:03;506.50;;;152.40;;
74459;SDS011;62902;48.854;9.292;2023-03-31T01:04:31;508.30;;;151.50;;
74459;SDS011;62902;48.854;9.292;2023-03-31T01:07:12;511.10;;;150.50;;
74459;SDS011;62902;48.854;9.292;2023-03-31T01:09:42;508.17;;;151.38;;
74459;SDS011;62902;48.854;9.292;2023-03-31T01:12:13;508.30;;;149.45;;
74459;SDS011;62902;48.854;9.292;2023-03-31T01:14:42;476.37;;;158.33;;
74459;SDS011;62902;48.854;9.292;2023-03-31T01:17:08;470.95;;;154.65;;
74459;SDS011;62902;48.854;9.292;2023-03-31T01:19:41;473.10;;;159.23;;
74459;SDS011;62902;48.854;9.292;2023-03-31T01:25:05;474.00;;;156.40;;
74459;SDS011;62902;48.854;9.292;2023-03-31T01:27:47;502.15;;;150.70;;
74459;SDS011;62902;48.854;9.292;2023-03-31T01:32:59;490.50;;;151.30;;
74459;SDS011;62902;48.854;9.292;2023-03-31T01:36:05;491.20;;;151.90;;
74459;SDS011;62902;48.854;9.292;2023-03-31T01:39:11;443.03;;;181.30;;
74459;SDS011;62902;48.854;9.292;2023-03-31T01:41:48;479.60;;;167.20;;
74459;SDS011;62902;48.854;9.292;2023-03-31T01:46:57;440.05;;;183.00;;
74459;SDS011;62902;48.854;9.292;2023-03-31T01:49:33;451.10;;;176.90;;
74459;SDS011;62902;48.854;9.292;2023-03-31T01:52:23;449.40;;;174.73;;
74459;SDS011;62902;48.854;9.292;2023-03-31T01:57:53;442.23;;;178.73;;
74459;SDS011;62902;48.854;9.292;2023-03-31T02:00:26;485.00;;;154.50;;
74459;SDS011;62902;48.854;9.292;2023-03-31T02:05:50;543.15;;;141.90;;
74459;SDS011;62902;48.854;9.292;2023-03-31T02:08:24;540.20;;;136.05;;
74459;SDS011;62902;48.854;9.292;2023-03-31T02:10:57;510.27;;;138.77;;
74459;SDS011;62902;48.854;9.292;2023-03-31T02:13:24;483.20;;;138.80;;
74459;SDS011;62902;48.854;9.292;2023-03-31T02:15:53;482.60;;;135.90;;
74459;SDS011;62902;48.854;9.292;2023-03-31T02:18:24;492.20;;;147.10;;
74459;SDS011;62902;48.854;9.292;2023-03-31T02:20:52;501.60;;;143.80;;
74459;SDS011;62902;48.854;9.292;2023-03-31T02:23:21;522.90;;;139.60;;
74459;SDS011;62902;48.854;9.292;2023-03-31T02:25:52;551.43;;;136.97;;
74459;SDS011;62902;48.854;9.292;2023-03-31T02:28:24;540.13;;;135.80;;
74459;SDS011;62902;48.854;9.292;2023-03-31T02:33:32;538.30;;;139.43;;
74459;SDS011;62902;48.854;9.292;2023-03-31T02:35:59;532.30;;;138.80;;
74459;SDS011;62902;48.854;9.292;2023-03-31T02:38:26;553.65;;;137.88;;
74459;SDS011;62902;48.854;9.292;2023-03-31T02:40:53;528.92;;;137.18;;
74459;SDS011;62902;48.854;9.292;2023-03-31T02:43:19;522.60;;;137.85;;
74459;SDS011;62902;48.854;9.292;2023-03-31T02:45:47;546.40;;;138.80;;
74459;SDS011;62902;48.854;9.292;2023-03-31T02:48:32;548.13;;;136.18;;
74459;SDS011;62902;48.854;9.292;2023-03-31T02:51:09;554.63;;;135.43;;
74459;SDS011;62902;48.854;9.292;2023-03-31T02:59:27;549.88;;;136.70;;
74459;SDS011;62902;48.854;9.292;2023-03-31T03:02:03;538.85;;;137.35;;
74459;SDS011;62902;48.854;9.292;2023-03-31T03:07:24;550.90;;;137.90;;
74459;SDS011;62902;48.854;9.292;2023-03-31T03:10:01;517.45;;;140.73;;
74459;SDS011;62902;48.854;9.292;2023-03-31T03:12:32;514.95;;;142.55;;
74459;SDS011;62902;48.854;9.292;2023-03-31T03:15:05;511.00;;;142.05;;
74459;SDS011;62902;48.854;9.292;2023-03-31T03:17:35;531.60;;;140.60;;
74459;SDS011;62902;48.854;9.292;2023-03-31T03:20:05;523.70;;;140.00;;
74459;SDS011;62902;48.854;9.292;2023-03-31T03:22:39;487.60;;;149.30;;
74459;SDS011;62902;48.854;9.292;2023-03-31T03:25:07;524.60;;;140.10;;
74459;SDS011;62902;48.854;9.292;2023-03-31T03:27:36;508.80;;;144.98;;
74459;SDS011;62902;48.854;9.292;2023-03-31T03:30:03;534.08;;;137.18;;
74459;SDS011;62902;48.854;9.292;2023-03-31T03:32:32;522.55;;;144.05;;
74459;SDS011;62902;48.854;9.292;2023-03-31T03:34:59;530.25;;;140.23;;
74459;SDS011;62902;48.854;9.292;2023-03-31T03:37:28;520.97;;;141.70;;
74459;SDS011;62902;48.854;9.292;2023-03-31T03:39:54;499.50;;;142.10;;
74459;SDS011;62902;48.854;9.292;2023-03-31T03:42:21;501.10;;;142.20;;
74459;SDS011;62902;48.854;9.292;2023-03-31T03:44:48;518.60;;;142.80;;
74459;SDS011;62902;48.854;9.292;2023-03-31T03:47:14;497.17;;;140.27;;
74459;SDS011;62902;48.854;9.292;2023-03-31T03:49:41;497.90;;;145.15;;
74459;SDS011;62902;48.854;9.292;2023-03-31T03:52:08;492.60;;;143.33;;
74459;SDS011;62902;48.854;9.292;2023-03-31T03:54:34;502.23;;;141.83;;
74459;SDS011;62902;48.854;9.292;2023-03-31T03:57:01;502.90;;;141.45;;
74459;SDS011;62902;48.854;9.292;2023-03-31T03:59:27;500.45;;;142.88;;
74459;SDS011;62902;48.854;9.292;2023-03-31T04:01:54;508.63;;;142.73;;
74459;SDS011;62902;48.854;9.292;2023-03-31T04:04:21;504.40;;;142.10;;
74459;SDS011;62902;48.854;9.292;2023-03-31T04:06:47;509.40;;;141.60;;
74459;SDS011;62902;48.854;9.292;2023-03-31T04:09:14;522.15;;;141.13;;
74459;SDS011;62902;48.854;9.292;2023-03-31T04:11:41;513.30;;;142.10;;
74459;SDS011;62902;48.854;9.292;2023-03-31T04:14:07;499.63;;;133.07;;
74459;SDS011;62902;48.854;9.292;2023-03-31T04:16:34;543.58;;;138.20;;
74459;SDS011;62902;48.854;9.292;2023-03-31T04:19:00;541.20;;;138.00;;
74459;SDS011;62902;48.854;9.292;2023-03-31T04:21:30;549.90;;;136.73;;
74459;SDS011;62902;48.854;9.292;2023-03-31T04:24:00;516.00;;;140.20;;
74459;SDS011;62902;48.854;9.292;2023-03-31T04:26:30;511.38;;;139.25;;
74459;SDS011;62902;48.854;9.292;2023-03-31T04:29:11;499.85;;;139.45;;
74459;SDS011;62902;48.854;9.292;2023-03-31T04:31:39;536.35;;;140.00;;
74459;SDS011;62902;48.854;9.292;2023-03-31T04:34:13;524.95;;;130.07;;
74459;SDS011;62902;48.854;9.292;2023-03-31T04:36:41;541.20;;;139.00;;
74459;SDS011;62902;48.854;9.292;2023-03-31T04:39:16;537.60;;;137.23;;
74459;SDS011;62902;48.854;9.292;2023-03-31T04:41:43;538.80;;;141.20;;
74459;SDS011;62902;48.854;9.292;2023-03-31T04:44:10;528.95;;;136.05;;
74459;SDS011;62902;48.854;9.292;2023-03-31T04:46:37;538.95;;;137.45;;
74459;SDS011;62902;48.854;9.292;2023-03-31T04:49:03;545.00;;;135.35;;
74459;SDS011;62902;48.854;9.292;2023-03-31T04:51:31;537.53;;;139.20;;
74459;SDS011;62902;48.854;9.292;2023-03-31T04:53:57;524.20;;;130.93;;
74459;SDS011;62902;48.854;9.292;2023-03-31T04:56:24;526.55;;;137.75;;
74459;SDS011;62902;48.854;9.292;2023-03-31T04:58:52;541.25;;;140.27;;
74459;SDS011;62902;48.854;9.292;2023-03-31T05:01:18;517.30;;;133.48;;
74459;SDS011;62902;48.854;9.292;2023-03-31T05:03:45;532.00;;;141.57;;
74459;SDS011;62902;48.854;9.292;2023-03-31T05:06:14;507.52;;;144.88;;
74459;SDS011;62902;48.854;9.292;2023-03-31T05:08:41;505.40;;;145.00;;
74459;SDS011;62902;48.854;9.292;2023-03-31T05:11:08;498.35;;;144.18;;
74459;SDS011;62902;48.854;9.292;2023-03-31T05:13:34;510.65;;;141.30;;
74459;SDS011;62902;48.854;9.292;2023-03-31T05:16:07;501.10;;;143.10;;
74459;SDS011;62902;48.854;9.292;2023-03-31T05:18:36;509.60;;;141.20;;
74459;SDS011;62902;48.854;9.292;2023-03-31T05:21:16;512.40;;;142.70;;
74459;SDS011;62902;48.854;9.292;2023-03-31T05:23:44;518.10;;;142.60;;
74459;SDS011;62902;48.854;9.292;2023-03-31T05:26:11;500.50;;;143.00;;
74459;SDS011;62902;48.854;9.292;2023-03-31T05:28:39;505.40;;;144.63;;
74459;SDS011;62902;48.854;9.292;2023-03-31T05:31:07;493.93;;;136.10;;
74459;SDS011;62902;48.854;9.292;2023-03-31T05:33:34;504.05;;;147.00;;
74459;SDS011;62902;48.854;9.292;2023-03-31T05:36:06;485.73;;;148.30;;
74459;SDS011;62902;48.854;9.292;2023-03-31T05:38:37;501.37;;;145.83;;
74459;SDS011;62902;48.854;9.292;2023-03-31T05:41:04;499.45;;;145.40;;
74459;SDS011;62902;48.854;9.292;2023-03-31T05:43:32;505.65;;;143.57;;
74459;SDS011;62902;48.854;9.292;2023-03-31T05:45:58;499.05;;;144.65;;
74459;SDS011;62902;48.854;9.292;2023-03-31T05:48:25;461.43;;;151.57;;
74459;SDS011;62902;48.854;9.292;2023-03-31T05:50:55;505.35;;;146.73;;
74459;SDS011;62902;48.854;9.292;2023-03-31T05:53:23;508.95;;;141.90;;
74459;SDS011;62902;48.854;9.292;2023-03-31T05:55:55;517.67;;;130.68;;
74459;SDS011;62902;48.854;9.292;2023-03-31T05:58:23;529.50;;;134.25;;
74459;SDS011;62902;48.854;9.292;2023-03-31T06:00:58;515.00;;;132.13;;
74459;SDS011;62902;48.854;9.292;2023-03-31T06:03:26;528.63;;;135.02;;
74459;SDS011;62902;48.854;9.292;2023-03-31T06:05:53;523.45;;;138.70;;
74459;SDS011;62902;48.854;9.292;2023-03-31T06:08:20;527.00;;;135.53;;
74459;SDS011;62902;48.854;9.292;2023-03-31T06:10:47;512.55;;;132.10;;
74459;SDS011;62902;48.854;9.292;2023-03-31T06:13:14;525.47;;;142.00;;
74459;SDS011;62902;48.854;9.292;2023-03-31T06:15:40;550.70;;;137.95;;
74459;SDS011;62902;48.854;9.292;2023-03-31T06:18:07;522.90;;;127.10;;
74459;SDS011;62902;48.854;9.292;2023-03-31T06:20:35;540.80;;;136.10;;
74459;SDS011;62902;48.854;9.292;2023-03-31T06:23:02;531.53;;;135.63;;
74459;SDS011;62902;48.854;9.292;2023-03-31T06:25:28;536.00;;;136.80;;
74459;SDS011;62902;48.854;9.292;2023-03-31T06:28:09;517.33;;;128.70;;
74459;SDS011;62902;48.854;9.292;2023-03-31T06:30:35;529.53;;;136.05;;
74459;SDS011;62902;48.854;9.292;2023-03-31T06:33:02;530.10;;;136.63;;
74459;SDS011;62902;48.854;9.292;2023-03-31T06:35:29;528.20;;;137.00;;
74459;SDS011;62902;48.854;9.292;2023-03-31T06:37:55;507.50;;;133.75;;
74459;SDS011;62902;48.854;9.292;2023-03-31T06:40:22;529.10;;;135.40;;
74459;SDS011;62902;48.854;9.292;2023-03-31T06:42:49;530.20;;;139.00;;
74459;SDS011;62902;48.854;9.292;2023-03-31T06:45:16;528.85;;;136.85;;
74459;SDS011;62902;48.854;9.292;2023-03-31T06:47:42;529.90;;;137.75;;
74459;SDS011;62902;48.854;9.292;2023-03-31T06:50:09;535.50;;;134.65;;
74459;SDS011;62902;48.854;9.292;2023-03-31T06:52:36;517.45;;;132.85;;
74459;SDS011;62902;48.854;9.292;2023-03-31T06:55:03;540.15;;;134.73;;
74459;SDS011;62902;48.854;9.292;2023-03-31T06:57:30;533.70;;;136.30;;
74459;SDS011;62902;48.854;9.292;2023-03-31T06:59:59;536.50;;;140.15;;
74459;SDS011;62902;48.854;9.292;2023-03-31T07:02:26;558.20;;;131.80;;
74459;SDS011;62902;48.854;9.292;2023-03-31T07:04:53;536.67;;;128.88;;
74459;SDS011;62902;48.854;9.292;2023-03-31T07:07:19;538.00;;;131.32;;
74459;SDS011;62902;48.854;9.292;2023-03-31T07:09:46;519.58;;;135.75;;
74459;SDS011;62902;48.854;9.292;2023-03-31T07:12:12;549.60;;;132.33;;
74459;SDS011;62902;48.854;9.292;2023-03-31T07:14:39;548.20;;;137.50;;
74459;SDS011;62902;48.854;9.292;2023-03-31T07:17:06;556.00;;;132.10;;
74459;SDS011;62902;48.854;9.292;2023-03-31T07:19:32;553.40;;;134.40;;
74459;SDS011;62902;48.854;9.292;2023-03-31T07:22:03;559.10;;;133.70;;
74459;SDS011;62902;48.854;9.292;2023-03-31T07:24:31;543.28;;;128.45;;
74459;SDS011;62902;48.854;9.292;2023-03-31T07:26:57;531.63;;;139.45;;
74459;SDS011;62902;48.854;9.292;2023-03-31T07:29:24;535.17;;;136.63;;
74459;SDS011;62902;48.854;9.292;2023-03-31T07:31:51;521.90;;;143.00;;
74459;SDS011;62902;48.854;9.292;2023-03-31T07:34:18;525.92;;;136.25;;
74459;SDS011;62902;48.854;9.292;2023-03-31T07:36:44;519.97;;;141.23;;
74459;SDS011;62902;48.854;9.292;2023-03-31T07:39:11;536.17;;;135.93;;
74459;SDS011;62902;48.854;9.292;2023-03-31T07:41:38;533.90;;;137.70;;
74459;SDS011;62902;48.854;9.292;2023-03-31T07:44:05;515.15;;;128.93;;
74459;SDS011;62902;48.854;9.292;2023-03-31T07:46:31;528.10;;;136.50;;
74459;SDS011;62902;48.854;9.292;2023-03-31T07:48:58;515.70;;;131.50;;
74459;SDS011;62902;48.854;9.292;2023-03-31T07:51:27;522.88;;;135.57;;
74459;SDS011;62902;48.854;9.292;2023-03-31T07:53:54;530.20;;;139.60;;
74459;SDS011;62902;48.854;9.292;2023-03-31T07:56:21;531.00;;;133.43;;
74459;SDS011;62902;48.854;9.292;2023-03-31T07:58:49;536.10;;;138.75;;
74459;SDS011;62902;48.854;9.292;2023-03-31T08:01:20;527.85;;;133.25;;
74459;SDS011;62902;48.854;9.292;2023-03-31T08:03:51;525.53;;;136.27;;
74459;SDS011;62902;48.854;9.292;2023-03-31T08:06:21;526.40;;;133.80;;
74459;SDS011;62902;48.854;9.292;2023-03-31T08:08:49;528.67;;;139.00;;
74459;SDS011;62902;48.854;9.292;2023-03-31T08:11:16;530.92;;;134.95;;
74459;SDS011;62902;48.854;9.292;2023-03-31T08:13:43;530.95;;;137.38;;
74459;SDS011;62902;48.854;9.292;2023-03-31T08:16:09;531.15;;;136.45;;
74459;SDS011;62902;48.854;9.292;2023-03-31T08:18:36;513.00;;;135.80;;
74459;SDS011;62902;48.854;9.292;2023-03-31T08:21:03;527.10;;;134.90;;
74459;SDS011;62902;48.854;9.292;2023-03-31T08:23:30;531.53;;;134.52;;
74459;SDS011;62902;48.854;9.292;2023-03-31T08:26:09;516.95;;;130.68;;
74459;SDS011;62902;48.854;9.292;2023-03-31T08:28:40;535.58;;;138.70;;
74459;SDS011;62902;48.854;9.292;2023-03-31T08:31:07;511.50;;;144.90;;
74459;SDS011;62902;48.854;9.292;2023-03-31T08:33:36;505.13;;;148.57;;
74459;SDS011;62902;48.854;9.292;2023-03-31T08:36:03;506.52;;;149.07;;
74459;SDS011;62902;48.854;9.292;2023-03-31T08:38:31;507.77;;;144.77;;
74459;SDS011;62902;48.854;9.292;2023-03-31T08:40:59;504.00;;;147.60;;
74459;SDS011;62902;48.854;9.292;2023-03-31T08:43:28;486.30;;;154.50;;
74459;SDS011;62902;48.854;9.292;2023-03-31T08:45:57;500.63;;;150.93;;
74459;SDS011;62902;48.854;9.292;2023-03-31T08:51:11;503.50;;;153.35;;
74459;SDS011;62902;48.854;9.292;2023-03-31T08:53:41;488.40;;;159.25;;
74459;SDS011;62902;48.854;9.292;2023-03-31T08:56:14;492.85;;;155.80;;
74459;SDS011;62902;48.854;9.292;2023-03-31T08:58:42;493.52;;;154.32;;
74459;SDS011;62902;48.854;9.292;2023-03-31T09:07:07;484.70;;;164.85;;
74459;SDS011;62902;48.854;9.292;2023-03-31T09:09:49;486.45;;;164.25;;
74459;SDS011;62902;48.854;9.292;2023-03-31T09:12:52;380.50;;;244.70;;
74459;SDS011;62902;48.854;9.292;2023-03-31T09:17:54;411.60;;;204.10;;
74459;SDS011;62902;48.854;9.292;2023-03-31T09:20:30;451.50;;;170.20;;
74459;SDS011;62902;48.854;9.292;2023-03-31T09:23:16;402.20;;;221.20;;
74459;SDS011;62902;48.854;9.292;2023-03-31T09:25:45;443.90;;;175.80;;
74459;SDS011;62902;48.854;9.292;2023-03-31T09:28:13;435.70;;;181.55;;
74459;SDS011;62902;48.854;9.292;2023-03-31T09:30:45;489.55;;;152.90;;
74459;SDS011;62902;48.854;9.292;2023-03-31T09:33:25;525.23;;;141.97;;
74459;SDS011;62902;48.854;9.292;2023-03-31T09:36:02;509.45;;;147.80;;
74459;SDS011;62902;48.854;9.292;2023-03-31T09:38:34;512.17;;;144.23;;
74459;SDS011;62902;48.854;9.292;2023-03-31T09:41:01;471.80;;;152.23;;
74459;SDS011;62902;48.854;9.292;2023-03-31T09:43:29;484.13;;;158.10;;
74459;SDS011;62902;48.854;9.292;2023-03-31T09:45:57;477.70;;;167.70;;
74459;SDS011;62902;48.854;9.292;2023-03-31T09:48:40;466.75;;;174.25;;
74459;SDS011;62902;48.854;9.292;2023-03-31T09:51:12;470.20;;;172.20;;
74459;SDS011;62902;48.854;9.292;2023-03-31T09:54:24;471.75;;;167.25;;
74459;SDS011;62902;48.854;9.292;2023-03-31T09:56:45;511.37;;;149.83;;
74459;SDS011;62902;48.854;9.292;2023-03-31T09:59:16;486.27;;;159.10;;
74459;SDS011;62902;48.854;9.292;2023-03-31T10:01:44;486.97;;;155.97;;
74459;SDS011;62902;48.854;9.292;2023-03-31T10:04:20;495.97;;;152.40;;
74459;SDS011;62902;48.854;9.292;2023-03-31T10:06:48;488.50;;;156.67;;
74459;SDS011;62902;48.854;9.292;2023-03-31T10:09:18;506.35;;;148.15;;
74459;SDS011;62902;48.854;9.292;2023-03-31T10:12:07;494.95;;;154.40;;
74459;SDS011;62902;48.854;9.292;2023-03-31T10:14:44;495.83;;;149.70;;
74459;SDS011;62902;48.854;9.292;2023-03-31T10:17:16;506.95;;;150.02;;
74459;SDS011;62902;48.854;9.292;2023-03-31T10:19:48;498.63;;;152.73;;
74459;SDS011;62902;48.854;9.292;2023-03-31T10:24:47;489.47;;;161.63;;
74459;SDS011;62902;48.854;9.292;2023-03-31T10:29:47;442.85;;;197.20;;
74459;SDS011;62902;48.854;9.292;2023-03-31T10:32:21;343.20;;;190.80;;
74459;SDS011;62902;48.854;9.292;2023-03-31T10:34:51;488.73;;;171.03;;
74459;SDS011;62902;48.854;9.292;2023-03-31T10:37:18;602.10;;;64.80;;
74459;SDS011;62902;48.854;9.292;2023-03-31T10:39:55;585.33;;;60.30;;
74459;SDS011;62902;48.854;9.292;2023-03-31T10:42:25;588.30;;;63.90;;
74459;SDS011;62902;48.854;9.292;2023-03-31T10:48:03;331.30;;;30.55;;
74459;SDS011;62902;48.854;9.292;2023-03-31T10:50:32;595.85;;;90.60;;
74459;SDS011;62902;48.854;9.292;2023-03-31T10:53:04;569.40;;;139.15;;
74459;SDS011;62902;48.854;9.292;2023-03-31T10:55:45;569.20;;;139.43;;
74459;SDS011;62902;48.854;9.292;2023-03-31T10:58:29;574.75;;;137.10;;
74459;SDS011;62902;48.854;9.292;2023-03-31T11:11:57;572.27;;;98.10;;
74459;SDS011;62902;48.854;9.292;2023-03-31T11:14:43;573.53;;;93.87;;
74459;SDS011;62902;48.854;9.292;2023-03-31T11:25:48;569.28;;;96.85;;
74459;SDS011;62902;48.854;9.292;2023-03-31T11:28:24;571.45;;;82.35;;
74459;SDS011;62902;48.854;9.292;2023-03-31T11:31:08;579.80;;;103.27;;
74459;SDS011;62902;48.854;9.292;2023-03-31T11:36:32;558.13;;;101.15;;
74459;SDS011;62902;48.854;9.292;2023-03-31T11:39:38;557.60;;;95.55;;
74459;SDS011;62902;48.854;9.292;2023-03-31T11:42:08;558.58;;;84.95;;
74459;SDS011;62902;48.854;9.292;2023-03-31T11:44:49;558.65;;;83.80;;
74459;SDS011;62902;48.854;9.292;2023-03-31T11:47:25;557.13;;;86.10;;
74459;SDS011;62902;48.854;9.292;2023-03-31T11:49:57;558.50;;;79.95;;
74459;SDS011;62902;48.854;9.292;2023-03-31T11:52:33;557.95;;;82.65;;
74459;SDS011;62902;48.854;9.292;2023-03-31T11:55:02;556.85;;;86.20;;
74459;SDS011;62902;48.854;9.292;2023-03-31T11:57:32;560.33;;;77.35;;
74459;SDS011;62902;48.854;9.292;2023-03-31T12:00:04;559.55;;;77.90;;
74459;SDS011;62902;48.854;9.292;2023-03-31T12:05:46;560.80;;;75.57;;
74459;SDS011;62902;48.854;9.292;2023-03-31T12:08:27;560.25;;;77.85;;
74459;SDS011;62902;48.854;9.292;2023-03-31T12:11:01;559.85;;;80.35;;
74459;SDS011;62902;48.854;9.292;2023-03-31T12:16:21;557.75;;;90.72;;
74459;SDS011;62902;48.854;9.292;2023-03-31T12:18:56;563.25;;;81.72;;
74459;SDS011;62902;48.854;9.292;2023-03-31T12:21:27;563.70;;;78.33;;
74459;SDS011;62902;48.854;9.292;2023-03-31T12:23:54;566.08;;;78.75;;
74459;SDS011;62902;48.854;9.292;2023-03-31T12:29:12;566.67;;;76.73;;
74459;SDS011;62902;48.854;9.292;2023-03-31T12:31:48;567.17;;;81.13;;
74459;SDS011;62902;48.854;9.292;2023-03-31T12:42:35;570.90;;;74.35;;
74459;SDS011;62902;48.854;9.292;2023-03-31T12:45:28;577.75;;;65.15;;
74459;SDS011;62902;48.854;9.292;2023-03-31T12:51:01;591.05;;;71.80;;
74459;SDS011;62902;48.854;9.292;2023-03-31T12:55:56;553.75;;;60.15;;
74459;SDS011;62902;48.854;9.292;2023-03-31T13:14:00;549.40;;;71.35;;
74459;SDS011;62902;48.854;9.292;2023-03-31T13:16:28;547.83;;;84.40;;
74459;SDS011;62902;48.854;9.292;2023-03-31T13:18:56;544.95;;;99.60;;
74459;SDS011;62902;48.854;9.292;2023-03-31T13:21:23;544.70;;;94.57;;
74459;SDS011;62902;48.854;9.292;2023-03-31T13:23:50;544.60;;;94.45;;
74459;SDS011;62902;48.854;9.292;2023-03-31T13:34:27;546.53;;;66.25;;
74459;SDS011;62902;48.854;9.292;2023-03-31T13:37:04;546.95;;;63.50;;
74459;SDS011;62902;48.854;9.292;2023-03-31T13:42:45;544.58;;;70.28;;
74459;SDS011;62902;48.854;9.292;2023-03-31T13:45:37;544.03;;;71.97;;
74459;SDS011;62902;48.854;9.292;2023-03-31T13:48:13;543.65;;;77.15;;
74459;SDS011;62902;48.854;9.292;2023-03-31T14:02:02;544.05;;;65.53;;
74459;SDS011;62902;48.854;9.292;2023-03-31T14:04:46;542.90;;;69.35;;
74459;SDS011;62902;48.854;9.292;2023-03-31T14:07:32;542.33;;;60.53;;
74459;SDS011;62902;48.854;9.292;2023-03-31T14:10:03;540.80;;;57.95;;
74459;SDS011;62902;48.854;9.292;2023-03-31T14:12:33;541.90;;;59.00;;
74459;SDS011;62902;48.854;9.292;2023-03-31T14:15:02;544.23;;;47.80;;
74459;SDS011;62902;48.854;9.292;2023-03-31T14:17:30;543.70;;;53.72;;
74459;SDS011;62902;48.854;9.292;2023-03-31T14:22:57;560.73;;;55.23;;
74459;SDS011;62902;48.854;9.292;2023-03-31T14:25:47;542.75;;;68.53;;
74459;SDS011;62902;48.854;9.292;2023-03-31T14:31:16;542.40;;;63.00;;
74459;SDS011;62902;48.854;9.292;2023-03-31T14:36:35;543.15;;;51.55;;
74459;SDS011;62902;48.854;9.292;2023-03-31T14:39:08;592.75;;;63.60;;
74459;SDS011;62902;48.854;9.292;2023-03-31T14:41:39;589.00;;;76.70;;
74459;SDS011;62902;48.854;9.292;2023-03-31T14:44:12;582.97;;;95.45;;
74459;SDS011;62902;48.854;9.292;2023-03-31T14:46:41;591.73;;;63.37;;
74459;SDS011;62902;48.854;9.292;2023-03-31T14:52:03;585.78;;;87.68;;
74459;SDS011;62902;48.854;9.292;2023-03-31T14:54:38;571.30;;;78.80;;
74459;SDS011;62902;48.854;9.292;2023-03-31T14:57:06;573.80;;;73.75;;
74459;SDS011;62902;48.854;9.292;2023-03-31T14:59:33;568.60;;;80.30;;
74459;SDS011;62902;48.854;9.292;2023-03-31T15:02:02;579.43;;;58.10;;
74459;SDS011;62902;48.854;9.292;2023-03-31T15:04:29;578.20;;;57.30;;
74459;SDS011;62902;48.854;9.292;2023-03-31T15:07:07;577.40;;;56.35;;
74459;SDS011;62902;48.854;9.292;2023-03-31T15:09:35;579.37;;;57.63;;
74459;SDS011;62902;48.854;9.292;2023-03-31T15:12:02;462.10;;;44.20;;
74459;SDS011;62902;48.854;9.292;2023-03-31T15:14:38;578.00;;;54.55;;
74459;SDS011;62902;48.854;9.292;2023-03-31T15:17:15;589.47;;;65.10;;
74459;SDS011;62902;48.854;9.292;2023-03-31T15:19:43;579.00;;;55.90;;
74459;SDS011;62902;48.854;9.292;2023-03-31T15:22:12;516.63;;;47.67;;
74459;SDS011;62902;48.854;9.292;2023-03-31T15:24:41;567.33;;;51.43;;
74459;SDS011;62902;48.854;9.292;2023-03-31T15:27:17;550.80;;;63.40;;
74459;SDS011;62902;48.854;9.292;2023-03-31T15:29:55;548.00;;;54.47;;
74459;SDS011;62902;48.854;9.292;2023-03-31T15:32:24;564.85;;;126.55;;
74459;SDS011;62902;48.854;9.292;2023-03-31T15:34:53;551.53;;;131.97;;
74459;SDS011;62902;48.854;9.292;2023-03-31T15:37:24;543.72;;;91.38;;
74459;SDS011;62902;48.854;9.292;2023-03-31T15:39:58;529.53;;;123.65;;
74459;SDS011;62902;48.854;9.292;2023-03-31T15:42:26;548.97;;;128.38;;
74459;SDS011;62902;48.854;9.292;2023-03-31T15:44:54;537.15;;;131.32;;
74459;SDS011;62902;48.854;9.292;2023-03-31T15:47:23;554.35;;;112.15;;
74459;SDS011;62902;48.854;9.292;2023-03-31T15:52:51;545.20;;;61.50;;
74459;SDS011;62902;48.854;9.292;2023-03-31T15:55:26;548.50;;;59.60;;
74459;SDS011;62902;48.854;9.292;2023-03-31T15:57:58;544.15;;;58.15;;
74459;SDS011;62902;48.854;9.292;2023-03-31T16:03:13;542.47;;;89.68;;
74459;SDS011;62902;48.854;9.292;2023-03-31T16:05:53;542.20;;;96.30;;
74459;SDS011;62902;48.854;9.292;2023-03-31T16:08:23;543.40;;;93.25;;
74459;SDS011;62902;48.854;9.292;2023-03-31T16:11:02;541.25;;;97.03;;
74459;SDS011;62902;48.854;9.292;2023-03-31T16:13:32;541.08;;;101.68;;
74459;SDS011;62902;48.854;9.292;2023-03-31T16:15:59;539.83;;;102.65;;
74459;SDS011;62902;48.854;9.292;2023-03-31T16:18:38;541.17;;;97.30;;
74459;SDS011;62902;48.854;9.292;2023-03-31T16:21:07;540.33;;;100.22;;
74459;SDS011;62902;48.854;9.292;2023-03-31T16:23:37;541.05;;;96.50;;
74459;SDS011;62902;48.854;9.292;2023-03-31T16:26:06;544.85;;;70.00;;
74459;SDS011;62902;48.854;9.292;2023-03-31T16:28:34;544.40;;;68.30;;
74459;SDS011;62902;48.854;9.292;2023-03-31T16:31:02;545.42;;;70.57;;
74459;SDS011;62902;48.854;9.292;2023-03-31T16:33:31;544.70;;;71.45;;
74459;SDS011;62902;48.854;9.292;2023-03-31T16:36:18;543.70;;;71.65;;
74459;SDS011;62902;48.854;9.292;2023-03-31T16:38:44;545.58;;;70.82;;
74459;SDS011;62902;48.854;9.292;2023-03-31T16:41:12;543.83;;;67.75;;
74459;SDS011;62902;48.854;9.292;2023-03-31T16:43:41;543.65;;;68.13;;
74459;SDS011;62902;48.854;9.292;2023-03-31T16:46:09;544.13;;;69.28;;
74459;SDS011;62902;48.854;9.292;2023-03-31T16:48:36;544.17;;;72.35;;
74459;SDS011;62902;48.854;9.292;2023-03-31T16:51:03;543.47;;;71.82;;